Time;durP1;ratioP1;P1;durP2;ratioP2;P2;SDS_P1;SDS_P2;PMS_P1;PMS_P2;Temp;Humidity;BMP_temperature;BMP_pressure;BME280_temperature;BME280_humidity;BME280_pressure;Samples;Min_cycle;Max_cycle;Signal;HPM_P1;HPM_P2
2022/05/05 00:00:17;;;;;;;4.28;1.65;;;14.70;56.40;;;;;;4930570;29;20547;-75
2022/05/05 00:02:43;;;;;;;3.80;2.45;;;14.70;56.40;;;;;;4930287;29;20039;-75
2022/05/05 00:05:09;;;;;;;3.03;1.90;;;14.60;56.40;;;;;;4930686;29;20326;-75
2022/05/05 00:07:35;;;;;;;4.25;2.35;;;14.60;56.40;;;;;;4927886;29;20031;-75
2022/05/05 00:14:23;;;;;;;3.78;2.05;;;14.50;56.30;;;;;;4917528;29;20054;-75
2022/05/05 00:15:33;;;;;;;2.50;2.30;;;14.40;56.30;;;;;;4921452;29;20038;-75
2022/05/05 00:17:59;;;;;;;2.63;1.98;;;14.40;56.30;;;;;;4918239;29;20136;-75
2022/05/05 00:20:25;;;;;;;3.22;1.77;;;14.30;56.20;;;;;;4923144;29;20055;-75
2022/05/05 00:22:51;;;;;;;3.53;2.10;;;14.30;56.30;;;;;;4928812;29;20058;-75
2022/05/05 00:25:17;;;;;;;2.33;1.92;;;14.20;56.20;;;;;;4930297;29;20499;-75
2022/05/05 00:27:43;;;;;;;2.63;2.38;;;14.20;56.30;;;;;;4929886;29;20035;-75
2022/05/05 00:30:09;;;;;;;3.13;1.75;;;14.10;56.20;;;;;;4928413;29;20494;-75
2022/05/05 00:32:35;;;;;;;2.33;2.08;;;14.10;56.30;;;;;;4929231;29;20036;-75
2022/05/05 00:35:01;;;;;;;2.53;1.85;;;14.10;56.40;;;;;;4930115;29;20420;-75
2022/05/05 00:37:27;;;;;;;3.97;2.17;;;14.10;57.00;;;;;;4918773;29;20169;-74
2022/05/05 00:39:53;;;;;;;2.90;1.98;;;14.00;56.20;;;;;;4925586;29;20043;-76
2022/05/05 00:42:18;;;;;;;3.30;2.20;;;14.00;56.30;;;;;;4929003;29;20042;-75
2022/05/05 00:44:44;;;;;;;2.53;1.77;;;13.90;56.20;;;;;;4931222;29;20032;-76
2022/05/05 00:47:15;;;;;;;3.28;2.30;;;13.90;56.30;;;;;;4927936;29;20059;-75
2022/05/05 00:49:42;;;;;;;2.55;2.33;;;13.80;56.10;;;;;;4931268;29;20062;-74
2022/05/05 00:52:07;;;;;;;4.47;2.20;;;13.80;56.10;;;;;;4934984;29;20028;-74
2022/05/05 00:54:34;;;;;;;2.40;2.20;;;13.80;56.10;;;;;;4933222;29;20042;-74
2022/05/05 00:56:59;;;;;;;3.72;2.17;;;13.70;56.00;;;;;;4933507;29;20562;-74
2022/05/05 00:59:25;;;;;;;3.08;2.60;;;13.70;56.10;;;;;;4930810;29;20044;-74
2022/05/05 01:01:51;;;;;;;3.35;2.55;;;13.60;55.90;;;;;;4934407;29;20047;-75
2022/05/05 01:04:19;;;;;;;2.55;2.35;;;13.60;56.00;;;;;;4936643;29;20547;-75
2022/05/05 01:06:45;;;;;;;4.03;2.45;;;13.50;55.80;;;;;;4936880;29;20092;-74
2022/05/05 01:09:11;;;;;;;4.05;2.88;;;13.50;55.90;;;;;;4932560;29;20450;-75
2022/05/05 01:11:37;;;;;;;2.47;2.20;;;13.40;55.80;;;;;;4936000;29;20035;-75
2022/05/05 01:14:03;;;;;;;2.92;2.60;;;13.40;55.90;;;;;;4934741;29;20110;-74
2022/05/05 01:16:31;;;;;;;3.42;2.53;;;13.40;56.00;;;;;;4938391;29;20425;-75
2022/05/05 01:18:57;;;;;;;2.42;2.17;;;13.30;55.80;;;;;;4939025;29;20050;-75
2022/05/05 01:21:23;;;;;;;2.97;2.53;;;13.30;55.90;;;;;;4933455;29;20122;-75
2022/05/05 01:23:49;;;;;;;2.67;2.47;;;13.20;55.80;;;;;;4936806;29;20032;-75
2022/05/05 01:29:01;;;;;;;2.92;2.72;;;13.20;55.90;;;;;;4924377;29;20064;-74
2022/05/05 01:31:26;;;;;;;3.63;2.70;;;13.10;55.80;;;;;;4934151;29;20488;-75
2022/05/05 01:33:52;;;;;;;2.42;2.22;;;13.10;55.90;;;;;;4933368;29;20070;-74
2022/05/05 01:36:21;;;;;;;4.18;2.30;;;13.10;55.90;;;;;;4934021;29;20384;-74
2022/05/05 01:38:47;;;;;;;2.63;2.42;;;13.00;55.80;;;;;;4931038;29;20070;-75
2022/05/05 01:41:14;;;;;;;2.30;2.03;;;13.00;55.90;;;;;;4933472;29;20055;-75
2022/05/05 01:43:43;;;;;;;2.00;1.80;;;13.00;55.90;;;;;;4930436;29;20028;-74
2022/05/05 01:46:09;;;;;;;3.15;2.63;;;12.90;55.80;;;;;;4934390;29;20159;-74
2022/05/05 01:48:35;;;;;;;3.45;2.40;;;12.90;55.90;;;;;;4942891;29;20040;-74
2022/05/05 01:51:02;;;;;;;3.30;2.53;;;12.90;55.90;;;;;;4952451;29;20100;-73
2022/05/05 01:53:28;;;;;;;4.93;2.35;;;12.80;55.80;;;;;;4948523;29;20035;-73
2022/05/05 01:55:54;;;;;;;2.88;2.13;;;12.80;55.80;;;;;;4944591;29;20372;-74
2022/05/05 01:58:20;;;;;;;3.80;2.70;;;12.80;55.90;;;;;;4947677;29;20122;-73
2022/05/05 02:00:46;;;;;;;3.63;1.73;;;12.80;55.90;;;;;;4929918;29;20377;-74
2022/05/05 02:03:15;;;;;;;2.10;1.90;;;12.70;55.80;;;;;;4935323;29;20075;-74
2022/05/05 02:05:42;;;;;;;3.10;2.20;;;12.70;55.80;;;;;;4928333;29;20035;-74
2022/05/05 02:08:09;;;;;;;2.72;2.28;;;12.70;55.90;;;;;;4932506;29;20032;-74
2022/05/05 02:10:35;;;;;;;2.42;1.90;;;12.60;55.80;;;;;;4933279;29;20027;-74
2022/05/05 02:13:03;;;;;;;2.47;1.70;;;12.60;55.80;;;;;;4919030;29;20115;-74
2022/05/05 02:15:28;;;;;;;3.95;2.58;;;12.50;55.70;;;;;;4920850;29;20032;-74
2022/05/05 02:17:54;;;;;;;2.10;1.88;;;12.50;55.70;;;;;;4927492;29;20110;-74
2022/05/05 02:20:20;;;;;;;1.90;1.65;;;12.40;55.50;;;;;;4932911;29;20044;-74
2022/05/05 02:22:46;;;;;;;2.13;1.75;;;12.40;55.60;;;;;;4915350;29;20047;-74
2022/05/05 02:25:12;;;;;;;2.20;1.50;;;12.40;55.70;;;;;;4932677;29;20031;-74
2022/05/05 02:27:47;;;;;;;1.70;1.50;;;12.40;55.70;;;;;;4929901;29;20292;-74
2022/05/05 02:30:13;;;;;;;1.92;1.55;;;12.30;55.70;;;;;;4932676;29;20035;-74
2022/05/05 02:32:39;;;;;;;2.13;1.40;;;12.30;55.60;;;;;;4922150;29;20496;-75
2022/05/05 02:35:05;;;;;;;2.00;1.80;;;12.30;55.70;;;;;;4932923;29;20135;-75
2022/05/05 02:40:16;;;;;;;1.95;1.75;;;12.20;55.60;;;;;;4920698;29;20036;-74
2022/05/05 02:42:42;;;;;;;1.88;1.48;;;12.20;55.70;;;;;;4931748;29;20424;-74
2022/05/05 02:45:08;;;;;;;3.25;1.67;;;12.20;55.70;;;;;;4929977;29;20072;-75
2022/05/05 02:47:34;;;;;;;1.88;1.67;;;12.20;55.70;;;;;;4932402;29;20074;-74
2022/05/05 02:50:00;;;;;;;1.42;1.10;;;12.10;55.60;;;;;;4932316;29;20027;-74
2022/05/05 02:52:26;;;;;;;2.47;1.40;;;12.10;55.60;;;;;;4932087;29;20035;-74
2022/05/05 02:54:52;;;;;;;2.05;1.25;;;12.10;55.60;;;;;;4932341;29;20447;-74
2022/05/05 02:57:20;;;;;;;1.65;1.15;;;12.00;55.40;;;;;;4932335;29;20036;-73
2022/05/05 02:59:50;;;;;;;2.20;1.50;;;12.00;55.50;;;;;;4932008;29;20095;-74
2022/05/05 03:02:17;;;;;;;2.90;1.38;;;12.00;55.50;;;;;;4932233;29;20107;-73
2022/05/05 03:04:43;;;;;;;1.50;1.40;;;12.00;55.60;;;;;;4928763;29;20039;-74
2022/05/05 03:07:09;;;;;;;1.50;1.27;;;11.90;55.40;;;;;;4930540;29;20024;-75
2022/05/05 03:09:35;;;;;;;1.67;1.42;;;11.90;55.50;;;;;;4952527;29;20083;-75
2022/05/05 03:12:01;;;;;;;1.55;1.45;;;11.90;55.50;;;;;;4955689;28;21008;-74
2022/05/05 03:14:28;;;;;;;2.50;1.33;;;11.80;55.40;;;;;;4956478;28;20080;-74
2022/05/05 03:16:53;;;;;;;1.38;1.20;;;11.80;55.40;;;;;;4953660;28;20028;-75
2022/05/05 03:19:19;;;;;;;1.45;1.33;;;11.80;55.50;;;;;;4943463;28;20055;-74
2022/05/05 03:21:45;;;;;;;3.63;1.55;;;11.70;55.30;;;;;;4955553;28;20058;-75
2022/05/05 03:24:11;;;;;;;1.25;1.10;;;11.70;55.40;;;;;;4962593;28;20026;-74
2022/05/05 03:26:37;;;;;;;1.48;1.02;;;11.70;55.40;;;;;;4951840;29;20022;-75
2022/05/05 03:29:04;;;;;;;1.50;1.40;;;11.60;55.30;;;;;;4954607;29;20024;-75
2022/05/05 03:31:31;;;;;;;1.52;1.40;;;11.60;55.30;;;;;;4947308;29;20028;-75
2022/05/05 03:33:57;;;;;;;4.10;1.55;;;11.60;55.40;;;;;;4933358;29;20032;-75
2022/05/05 03:36:23;;;;;;;1.65;1.55;;;11.60;55.40;;;;;;4924092;29;20028;-75
2022/05/05 03:38:50;;;;;;;1.88;1.70;;;11.50;55.30;;;;;;4914917;29;20677;-75
2022/05/05 03:41:16;;;;;;;2.28;1.60;;;11.50;55.30;;;;;;4930951;29;20031;-75
2022/05/05 03:43:42;;;;;;;1.90;1.80;;;11.50;55.40;;;;;;4930926;29;20039;-75
2022/05/05 03:46:08;;;;;;;2.08;1.98;;;11.40;55.20;;;;;;4932009;29;20031;-74
2022/05/05 03:48:33;;;;;;;3.75;1.73;;;11.40;55.30;;;;;;4930154;29;20047;-75
2022/05/05 03:50:59;;;;;;;2.72;2.15;;;11.40;55.30;;;;;;4931525;29;20191;-75
2022/05/05 03:53:25;;;;;;;1.83;1.70;;;11.40;55.40;;;;;;4927836;29;20028;-74
2022/05/05 03:55:51;;;;;;;2.35;2.15;;;11.40;55.40;;;;;;4914358;29;20036;-74
2022/05/05 03:58:17;;;;;;;2.58;2.10;;;11.30;55.30;;;;;;4927159;29;20099;-75
2022/05/05 04:00:43;;;;;;;3.03;1.98;;;11.30;55.40;;;;;;4931370;29;20598;-75
2022/05/05 04:05:53;;;;;;;2.58;2.38;;;11.30;55.40;;;;;;4931563;29;20056;-75
2022/05/05 04:08:19;;;;;;;2.67;2.47;;;11.30;55.50;;;;;;4921205;29;20047;-75
2022/05/05 04:10:45;;;;;;;2.90;2.58;;;11.20;55.40;;;;;;4917874;29;20039;-75
2022/05/05 04:13:12;;;;;;;3.00;2.42;;;11.20;55.40;;;;;;4927663;29;20294;-75
2022/05/05 04:15:38;;;;;;;3.25;2.50;;;11.20;55.40;;;;;;4923910;29;20036;-75
2022/05/05 04:18:05;;;;;;;2.67;2.33;;;11.10;55.30;;;;;;4928119;29;20780;-75
2022/05/05 04:20:31;;;;;;;2.97;2.42;;;11.10;55.40;;;;;;4931482;29;20492;-75
2022/05/05 04:22:57;;;;;;;2.33;2.08;;;11.10;55.40;;;;;;4933303;29;20383;-76
2022/05/05 04:25:23;;;;;;;3.28;2.08;;;11.10;55.50;;;;;;4935055;29;20127;-74
2022/05/05 04:27:50;;;;;;;4.13;2.53;;;11.10;55.50;;;;;;4934841;29;20036;-75
2022/05/05 04:30:17;;;;;;;3.28;2.28;;;11.10;55.60;;;;;;4929929;29;20031;-75
2022/05/05 04:32:44;;;;;;;3.03;2.60;;;11.00;55.40;;;;;;4932450;29;20071;-74
2022/05/05 04:35:10;;;;;;;2.92;2.72;;;11.00;55.50;;;;;;4930205;29;20050;-75
2022/05/05 04:37:37;;;;;;;2.60;2.22;;;11.00;55.50;;;;;;4926035;29;20076;-73
2022/05/05 04:40:03;;;;;;;3.13;2.28;;;11.00;55.60;;;;;;4930273;29;20135;-73
2022/05/05 04:42:30;;;;;;;3.42;2.40;;;11.00;55.60;;;;;;4928063;29;20435;-75
2022/05/05 04:44:56;;;;;;;3.72;2.65;;;11.00;55.60;;;;;;4929482;29;20403;-74
2022/05/05 04:47:22;;;;;;;2.78;2.55;;;11.00;55.70;;;;;;4933592;29;20130;-74
2022/05/05 04:49:47;;;;;;;2.53;2.20;;;10.90;55.50;;;;;;4927437;28;20036;-75
2022/05/05 04:52:13;;;;;;;3.08;2.83;;;11.00;55.70;;;;;;4931833;29;20195;-74
2022/05/05 04:54:39;;;;;;;3.17;2.88;;;11.00;55.70;;;;;;4926821;29;20083;-74
2022/05/05 04:57:05;;;;;;;4.20;2.50;;;11.00;55.70;;;;;;4926144;29;20028;-73
2022/05/05 04:59:31;;;;;;;3.63;3.33;;;11.00;56.30;;;;;;4931449;29;20496;-74
2022/05/05 05:01:57;;;;;;;3.08;2.60;;;11.00;55.80;;;;;;4922990;29;20032;-75
2022/05/05 05:04:23;;;;;;;3.38;2.60;;;11.00;55.80;;;;;;4917772;29;20162;-76
2022/05/05 05:06:49;;;;;;;3.15;2.60;;;11.00;55.80;;;;;;4930390;29;20043;-74
2022/05/05 05:09:14;;;;;;;3.03;2.72;;;11.10;56.00;;;;;;4928119;29;20039;-78
2022/05/05 05:11:40;;;;;;;3.42;2.28;;;11.00;55.80;;;;;;4921724;29;20108;-80
2022/05/05 05:14:06;;;;;;;10.80;3.15;;;11.10;56.00;;;;;;4928891;29;20424;-77
2022/05/05 05:16:32;;;;;;;2.53;2.30;;;11.10;55.90;;;;;;4948098;29;20047;-77
2022/05/05 05:18:58;;;;;;;2.95;2.50;;;11.20;56.10;;;;;;4952305;28;20143;-77
2022/05/05 05:21:24;;;;;;;4.07;2.70;;;11.20;56.00;;;;;;4948609;29;20046;-77
2022/05/05 05:23:50;;;;;;;2.75;2.42;;;11.30;56.10;;;;;;4946399;29;20027;-76
2022/05/05 05:26:16;;;;;;;3.05;2.00;;;11.30;56.10;;;;;;4925513;29;20452;-76
2022/05/05 05:28:42;;;;;;;3.40;2.75;;;11.40;56.20;;;;;;4929155;29;20054;-76
2022/05/05 05:31:08;;;;;;;2.15;1.85;;;11.40;56.10;;;;;;4928623;29;20503;-77
2022/05/05 05:33:35;;;;;;;3.17;2.05;;;11.50;56.20;;;;;;4920579;29;20516;-80
2022/05/05 05:36:01;;;;;;;2.13;1.80;;;11.50;56.70;;;;;;4930430;29;20435;-79
2022/05/05 05:38:27;;;;;;;2.80;2.53;;;11.50;56.10;;;;;;4926967;29;20032;-76
2022/05/05 05:40:56;;;;;;;2.00;1.85;;;11.60;56.30;;;;;;4919002;29;20496;-77
2022/05/05 05:43:22;;;;;;;2.60;2.40;;;11.60;56.20;;;;;;4926822;29;20035;-77
2022/05/05 05:45:48;;;;;;;2.50;2.20;;;11.70;56.30;;;;;;4923902;29;20507;-77
2022/05/05 05:48:14;;;;;;;3.03;1.90;;;11.80;56.50;;;;;;4927424;29;20401;-77
2022/05/05 05:50:40;;;;;;;2.60;2.40;;;11.90;56.50;;;;;;4924823;29;20166;-78
2022/05/05 05:53:06;;;;;;;3.60;2.63;;;12.00;56.60;;;;;;4923520;29;20046;-77
2022/05/05 05:55:32;;;;;;;2.53;2.33;;;12.10;56.70;;;;;;4923593;29;20066;-75
2022/05/05 05:57:58;;;;;;;2.55;2.35;;;12.20;56.70;;;;;;4924578;29;20051;-74
2022/05/05 06:00:24;;;;;;;2.78;2.47;;;12.40;57.00;;;;;;4925553;29;20047;-76
2022/05/05 06:05:34;;;;;;;2.60;2.40;;;12.60;56.80;;;;;;4923485;29;20082;-76
2022/05/05 06:08:02;;;;;;;2.83;2.47;;;12.70;56.70;;;;;;4930606;29;20063;-81
2022/05/05 06:10:29;;;;;;;4.75;2.83;;;12.90;56.90;;;;;;4920916;29;20269;-81
2022/05/05 06:12:55;;;;;;;3.53;3.13;;;13.10;57.10;;;;;;4931195;29;20035;-83
2022/05/05 06:15:22;;;;;;;3.63;2.90;;;13.10;57.00;;;;;;4931342;29;20659;-80
2022/05/05 06:17:49;;;;;;;2.75;2.45;;;13.30;57.20;;;;;;4930668;29;20035;-78
2022/05/05 06:20:15;;;;;;;2.60;2.40;;;13.40;57.30;;;;;;4926606;29;20082;-79
2022/05/05 06:22:41;;;;;;;3.50;3.00;;;13.50;57.30;;;;;;4931407;29;20507;-76
2022/05/05 06:25:07;;;;;;;3.83;3.50;;;13.60;57.40;;;;;;4930964;29;20035;-75
2022/05/05 06:27:34;;;;;;;3.95;3.53;;;13.60;57.40;;;;;;4929945;29;20039;-75
2022/05/05 06:30:01;;;;;;;4.18;3.78;;;13.70;57.60;;;;;;4927890;29;20126;-76
2022/05/05 06:32:27;;;;;;;6.00;3.72;;;13.80;57.70;;;;;;4916329;29;20028;-76
2022/05/05 06:34:54;;;;;;;5.38;3.30;;;13.80;57.60;;;;;;4932014;28;20057;-75
2022/05/05 06:37:20;;;;;;;4.93;3.40;;;13.90;57.80;;;;;;4921622;29;20122;-80
2022/05/05 06:39:46;;;;;;;5.35;4.13;;;14.00;57.90;;;;;;4928735;29;20070;-75
2022/05/05 06:42:12;;;;;;;4.55;3.95;;;14.00;57.90;;;;;;4927803;29;20028;-75
2022/05/05 06:44:38;;;;;;;6.35;4.32;;;14.00;57.90;;;;;;4930878;29;20436;-75
2022/05/05 06:47:04;;;;;;;4.85;4.10;;;14.10;58.10;;;;;;4930560;29;20107;-76
2022/05/05 06:49:30;;;;;;;4.75;4.25;;;14.10;58.00;;;;;;4918653;29;20095;-74
2022/05/05 06:51:55;;;;;;;6.80;5.32;;;14.20;58.20;;;;;;4931807;29;20031;-80
2022/05/05 06:54:21;;;;;;;6.88;5.57;;;14.20;58.20;;;;;;4930152;29;20039;-77
2022/05/05 06:56:47;;;;;;;7.10;6.00;;;14.30;58.30;;;;;;4930295;29;20127;-76
2022/05/05 06:59:13;;;;;;;7.30;6.60;;;14.40;59.10;;;;;;4923228;29;20043;-77
2022/05/05 07:02:01;;;;;;;8.05;6.22;;;14.40;58.40;;;;;;4925147;29;20032;-77
2022/05/05 07:07:14;;;;;;;9.75;6.65;;;14.60;58.60;;;;;;4925557;29;20443;-77
2022/05/05 07:12:27;;;;;;;8.23;7.38;;;14.80;58.90;;;;;;4932913;29;20043;-77
2022/05/05 07:14:52;;;;;;;10.73;8.85;;;15.00;58.90;;;;;;4941738;28;20032;-76
2022/05/05 07:17:19;;;;;;;10.50;8.13;;;15.10;58.90;;;;;;4919647;29;20150;-75
2022/05/05 07:19:45;;;;;;;9.75;8.63;;;15.20;58.90;;;;;;4923973;29;20531;-77
2022/05/05 07:22:11;;;;;;;11.82;9.95;;;15.30;58.90;;;;;;4926842;29;20035;-76
2022/05/05 07:24:37;;;;;;;11.63;9.77;;;15.50;59.10;;;;;;4919854;29;20244;-76
2022/05/05 07:27:05;;;;;;;14.80;9.88;;;15.60;59.00;;;;;;4909221;29;20110;-76
2022/05/05 07:29:31;;;;;;;11.73;10.18;;;15.80;59.10;;;;;;4925043;29;20508;-75
2022/05/05 07:31:58;;;;;;;12.32;10.60;;;15.90;59.00;;;;;;4930473;29;20031;-76
2022/05/05 07:34:26;;;;;;;13.48;11.95;;;16.10;59.10;;;;;;4929680;29;20384;-76
2022/05/05 07:36:52;;;;;;;12.35;10.18;;;16.20;59.10;;;;;;4929808;29;20031;-76
2022/05/05 07:39:18;;;;;;;12.45;10.75;;;16.30;59.00;;;;;;4930653;29;20048;-76
2022/05/05 07:41:44;;;;;;;12.48;11.18;;;16.50;59.20;;;;;;4934510;29;20036;-79
2022/05/05 07:44:10;;;;;;;12.38;11.07;;;16.60;59.10;;;;;;4930171;29;20059;-77
2022/05/05 07:46:36;;;;;;;12.18;10.98;;;16.70;59.00;;;;;;4930112;29;20079;-74
2022/05/05 07:49:04;;;;;;;10.68;9.57;;;16.90;59.20;;;;;;4931064;29;20039;-81
2022/05/05 07:51:31;;;;;;;13.13;10.75;;;17.00;59.30;;;;;;4911976;29;20123;-79
2022/05/05 07:56:43;;;;;;;12.68;11.23;;;17.40;59.30;;;;;;4928852;29;20046;-77
2022/05/05 07:59:10;;;;;;;11.77;10.57;;;17.60;59.20;;;;;;4926824;29;20048;-78
2022/05/05 08:01:36;;;;;;;12.48;11.15;;;17.80;59.30;;;;;;4927035;29;20443;-85
2022/05/05 08:04:02;;;;;;;12.63;11.32;;;18.00;59.30;;;;;;4928045;29;20032;-76
2022/05/05 08:06:28;;;;;;;11.93;10.73;;;18.20;59.20;;;;;;4927569;29;20079;-76
2022/05/05 08:08:54;;;;;;;12.20;10.77;;;18.40;59.00;;;;;;4922396;29;20453;-76
2022/05/05 08:11:19;;;;;;;11.45;10.25;;;18.70;58.90;;;;;;4915504;29;20126;-76
2022/05/05 08:13:45;;;;;;;12.27;11.18;;;18.90;58.70;;;;;;4921126;29;20477;-76
2022/05/05 08:16:11;;;;;;;11.88;10.68;;;19.10;58.70;;;;;;4926010;29;20395;-77
2022/05/05 08:18:38;;;;;;;12.27;11.02;;;19.30;58.60;;;;;;4915219;29;20556;-77
2022/05/05 08:21:10;;;;;;;11.98;10.10;;;19.50;58.50;;;;;;4917848;29;20023;-77
2022/05/05 08:23:37;;;;;;;11.90;10.65;;;19.70;58.50;;;;;;4929082;29;20133;-78
2022/05/05 08:28:48;;;;;;;11.38;10.27;;;20.00;58.20;;;;;;4918602;29;20396;-77
2022/05/05 08:31:14;;;;;;;13.50;11.52;;;20.10;58.00;;;;;;4919554;29;20138;-78
2022/05/05 08:33:40;;;;;;;11.60;10.40;;;20.30;58.10;;;;;;4924310;29;20539;-78
2022/05/05 08:36:07;;;;;;;10.85;9.80;;;20.40;58.00;;;;;;4923529;29;20032;-78
2022/05/05 08:38:33;;;;;;;11.77;10.57;;;20.60;57.90;;;;;;4916800;29;20139;-78
2022/05/05 08:40:59;;;;;;;12.18;10.93;;;20.80;57.80;;;;;;4920033;29;20035;-78
2022/05/05 08:43:26;;;;;;;13.02;11.82;;;21.00;57.80;;;;;;4922650;29;20118;-78
2022/05/05 08:45:55;;;;;;;12.65;11.45;;;21.10;57.60;;;;;;4927575;29;20135;-79
2022/05/05 08:48:21;;;;;;;12.35;11.05;;;21.20;57.50;;;;;;4916776;29;20055;-76
2022/05/05 08:50:55;;;;;;;12.48;11.27;;;21.30;57.50;;;;;;4916723;29;20028;-81
2022/05/05 08:53:25;;;;;;;11.02;10.02;;;21.30;57.20;;;;;;4897395;29;20042;-73
2022/05/05 08:55:51;;;;;;;12.10;11.05;;;21.50;57.30;;;;;;4923527;29;20119;-75
2022/05/05 08:58:17;;;;;;;12.52;11.32;;;21.50;57.10;;;;;;4912193;29;20135;-76
2022/05/05 09:00:43;;;;;;;11.40;10.20;;;21.50;57.00;;;;;;4916372;29;20062;-76
2022/05/05 09:03:10;;;;;;;11.32;10.20;;;21.50;56.90;;;;;;4923207;29;20055;-75
2022/05/05 09:05:46;;;;;;;12.70;11.50;;;21.50;56.90;;;;;;4917519;29;20043;-75
2022/05/05 09:08:13;;;;;;;11.45;10.35;;;21.60;56.80;;;;;;4927126;29;20036;-75
2022/05/05 09:10:48;;;;;;;11.43;10.43;;;21.80;57.00;;;;;;4927830;29;20031;-75
2022/05/05 09:13:20;;;;;;;11.80;10.60;;;22.00;56.90;;;;;;4930652;29;20396;-76
2022/05/05 09:15:46;;;;;;;11.15;10.15;;;22.20;56.70;;;;;;4931948;29;20028;-75
2022/05/05 09:18:33;;;;;;;10.55;9.55;;;22.40;56.70;;;;;;4932314;29;20027;-75
2022/05/05 09:21:04;;;;;;;10.25;9.25;;;22.70;56.40;;;;;;4947199;28;20060;-77
2022/05/05 09:23:34;;;;;;;9.90;9.00;;;22.90;56.40;;;;;;4957192;28;20295;-78
2022/05/05 09:26:05;;;;;;;11.20;10.10;;;23.10;56.20;;;;;;4944429;28;20028;-77
2022/05/05 09:28:36;;;;;;;9.60;8.70;;;23.20;56.00;;;;;;4951296;28;20032;-77
2022/05/05 09:31:07;;;;;;;8.50;7.80;;;23.30;55.90;;;;;;4953862;28;20015;-78
2022/05/05 09:33:33;;;;;;;9.25;8.32;;;23.40;55.90;;;;;;4948976;29;20023;-79
2022/05/05 09:36:02;;;;;;;9.27;8.32;;;23.40;55.80;;;;;;4950686;29;20039;-76
2022/05/05 09:38:56;;;;;;;8.60;7.80;;;23.60;55.80;;;;;;4929827;29;20484;-76
2022/05/05 09:41:29;;;;;;;8.85;7.95;;;23.90;55.60;;;;;;4933754;29;20217;-75
2022/05/05 09:44:11;;;;;;;8.65;7.80;;;24.20;55.80;;;;;;4921888;29;20031;-77
2022/05/05 09:46:36;;;;;;;8.73;7.93;;;24.40;55.60;;;;;;4927173;29;20056;-76
2022/05/05 09:49:08;;;;;;;8.30;7.45;;;24.50;55.40;;;;;;4928305;29;20043;-77
2022/05/05 09:51:39;;;;;;;7.88;7.20;;;24.60;55.40;;;;;;4923915;29;20278;-76
2022/05/05 09:59:49;;;;;;;8.60;7.72;;;24.40;55.30;;;;;;4928917;29;20100;-77
2022/05/05 10:05:22;;;;;;;8.10;7.40;;;24.20;55.30;;;;;;4929340;29;20122;-77
2022/05/05 10:07:52;;;;;;;8.18;7.38;;;24.20;55.50;;;;;;4927302;29;20055;-77
2022/05/05 10:10:19;;;;;;;8.27;7.47;;;24.20;56.00;;;;;;4928863;29;20547;-77
2022/05/05 10:12:47;;;;;;;9.30;7.10;;;24.20;55.30;;;;;;4930428;29;20032;-77
2022/05/05 10:15:13;;;;;;;7.10;6.50;;;24.30;55.30;;;;;;4927918;29;20032;-76
2022/05/05 10:17:40;;;;;;;7.10;6.40;;;24.40;55.40;;;;;;4926721;29;20036;-75
2022/05/05 10:20:11;;;;;;;7.88;7.07;;;24.40;55.20;;;;;;4921261;29;20044;-76
2022/05/05 10:22:59;;;;;;;7.38;6.68;;;24.40;55.00;;;;;;4901087;29;20043;-79
2022/05/05 10:25:26;;;;;;;6.57;5.97;;;24.50;54.90;;;;;;4929606;29;20043;-77
2022/05/05 10:27:54;;;;;;;8.57;5.65;;;24.50;55.00;;;;;;4936892;29;20059;-74
2022/05/05 10:30:34;;;;;;;7.25;6.43;;;24.50;54.90;;;;;;4935904;29;20315;-77
2022/05/05 10:33:05;;;;;;;6.88;6.28;;;24.50;54.90;;;;;;4926204;29;20039;-76
2022/05/05 10:35:45;;;;;;;7.85;5.93;;;24.40;54.80;;;;;;4931282;29;20095;-75
2022/05/05 10:38:41;;;;;;;6.57;5.97;;;24.40;54.90;;;;;;4932069;29;20070;-76
2022/05/05 10:41:39;;;;;;;7.00;6.13;;;24.50;55.50;;;;;;4927889;29;20114;-76
2022/05/05 10:44:23;;;;;;;6.38;5.78;;;24.60;54.80;;;;;;4926934;29;20127;-76
2022/05/05 10:46:52;;;;;;;5.78;5.28;;;24.80;54.90;;;;;;4930647;29;20060;-76
2022/05/05 10:49:30;;;;;;;6.45;5.72;;;25.00;55.00;;;;;;4925391;29;20035;-74
2022/05/05 10:52:08;;;;;;;5.47;4.97;;;25.10;54.70;;;;;;4927112;29;20177;-75
2022/05/05 10:54:36;;;;;;;6.68;5.75;;;25.20;54.50;;;;;;4926387;29;20028;-76
2022/05/05 10:57:29;;;;;;;7.25;5.82;;;25.20;54.40;;;;;;4932308;29;20103;-74
2022/05/05 11:00:07;;;;;;;;;;;25.30;54.10;;;;;;4908029;29;20063;-74
2022/05/05 11:02:34;;;;;;;5.55;5.07;;;25.40;54.20;;;;;;4930108;29;19922;-74
2022/05/05 11:05:20;;;;;;;5.28;4.78;;;25.60;54.20;;;;;;4926065;29;20115;-74
2022/05/05 11:07:49;;;;;;;4.78;4.38;;;25.80;53.70;;;;;;4923143;29;20094;-75
2022/05/05 11:10:46;;;;;;;4.70;4.22;;;25.90;53.60;;;;;;4924335;29;20091;-75
2022/05/05 11:13:35;;;;;;;4.85;4.15;;;26.10;53.20;;;;;;4925862;29;20059;-77
2022/05/05 11:22:06;;;;;;;5.18;4.68;;;26.60;52.60;;;;;;4929750;29;20031;-74
2022/05/05 11:24:33;;;;;;;5.13;4.05;;;26.80;52.30;;;;;;4928655;29;20032;-74
2022/05/05 11:26:59;;;;;;;5.85;4.72;;;26.90;52.10;;;;;;4925159;29;20122;-74
2022/05/05 11:29:30;;;;;;;4.70;3.80;;;27.10;51.80;;;;;;4901796;29;20044;-74
2022/05/05 11:31:57;;;;;;;4.22;3.92;;;27.20;51.50;;;;;;4920553;29;20126;-75
2022/05/05 11:34:31;;;;;;;5.50;4.65;;;27.40;51.40;;;;;;4934235;29;20102;-75
2022/05/05 11:36:59;;;;;;;4.40;3.80;;;27.50;51.10;;;;;;4923975;29;20058;-75
2022/05/05 11:39:25;;;;;;;4.00;3.45;;;27.50;50.90;;;;;;4928464;29;20071;-74
2022/05/05 11:42:09;;;;;;;5.63;3.90;;;27.60;50.80;;;;;;4927521;29;20050;-74
2022/05/05 11:44:40;;;;;;;3.90;3.50;;;27.60;50.50;;;;;;4929052;29;20487;-77
2022/05/05 11:47:17;;;;;;;4.00;3.40;;;27.60;50.50;;;;;;4941231;29;20039;-79
2022/05/05 11:49:48;;;;;;;4.15;3.65;;;27.70;50.30;;;;;;4944423;29;20379;-79
2022/05/05 11:52:21;;;;;;;5.40;3.47;;;27.70;50.40;;;;;;4954025;29;20304;-78
2022/05/05 11:54:49;;;;;;;3.88;3.50;;;27.80;50.20;;;;;;4950309;29;20042;-75
2022/05/05 11:57:39;;;;;;;3.53;3.13;;;27.80;50.10;;;;;;4945730;29;20086;-76
2022/05/05 12:02:52;;;;;;;4.13;3.55;;;28.00;49.90;;;;;;4942462;29;20030;-75
2022/05/05 12:05:21;;;;;;;4.45;3.35;;;28.10;49.80;;;;;;4945239;29;20020;-74
2022/05/05 12:07:47;;;;;;;4.53;3.55;;;28.20;49.60;;;;;;4946811;29;20035;-75
2022/05/05 12:10:15;;;;;;;3.90;3.08;;;28.40;49.40;;;;;;4939643;29;20137;-75
2022/05/05 12:12:46;;;;;;;4.50;3.13;;;28.50;49.20;;;;;;4945412;29;20046;-74
2022/05/05 12:15:13;;;;;;;4.13;3.45;;;28.70;49.60;;;;;;4930112;28;20079;-75
2022/05/05 12:17:57;;;;;;;3.30;3.00;;;28.70;48.80;;;;;;4927948;29;20039;-75
2022/05/05 12:20:24;;;;;;;3.50;3.22;;;28.90;48.50;;;;;;4923506;29;20044;-74
2022/05/05 12:22:55;;;;;;;3.50;2.95;;;29.00;48.60;;;;;;4929871;29;20166;-74
2022/05/05 12:25:23;;;;;;;3.65;3.33;;;29.00;48.40;;;;;;4929122;29;20538;-75
2022/05/05 12:27:59;;;;;;;3.97;3.00;;;29.20;48.40;;;;;;4924683;29;20143;-78
2022/05/05 12:30:39;;;;;;;3.63;3.33;;;29.30;48.10;;;;;;4915485;29;20047;-78
2022/05/05 12:33:17;;;;;;;4.70;3.50;;;29.40;47.90;;;;;;4920171;29;20480;-77
2022/05/05 12:35:45;;;;;;;3.42;3.10;;;29.50;47.80;;;;;;4916372;29;20047;-76
2022/05/05 12:38:15;;;;;;;3.38;3.00;;;29.70;47.70;;;;;;4923924;29;20034;-77
2022/05/05 12:40:43;;;;;;;3.83;3.35;;;29.90;47.50;;;;;;4925873;29;20036;-76
2022/05/05 12:43:11;;;;;;;3.28;2.90;;;30.10;47.20;;;;;;4924500;29;20071;-77
2022/05/05 12:45:37;;;;;;;5.18;4.00;;;30.30;47.00;;;;;;4927011;29;20632;-77
2022/05/05 12:48:06;;;;;;;4.65;3.17;;;30.50;46.80;;;;;;4924822;29;20083;-78
2022/05/05 12:50:41;;;;;;;4.13;3.17;;;30.80;46.40;;;;;;4926081;29;20251;-77
2022/05/05 13:01:30;;;;;;;3.55;2.80;;;31.00;46.00;;;;;;4930691;29;20090;-80
2022/05/05 13:03:58;;;;;;;6.13;3.75;;;31.00;45.80;;;;;;4928985;29;20369;-78
2022/05/05 13:06:25;;;;;;;6.15;3.42;;;31.20;45.80;;;;;;4927639;29;20351;-76
2022/05/05 13:08:52;;;;;;;7.10;3.75;;;31.20;45.70;;;;;;4932038;29;20027;-76
2022/05/05 13:11:19;;;;;;;3.40;3.10;;;31.20;45.50;;;;;;4926542;29;20046;-76
2022/05/05 13:13:45;;;;;;;4.78;3.58;;;31.20;45.50;;;;;;4932745;29;20042;-76
2022/05/05 13:16:12;;;;;;;4.05;3.63;;;31.20;45.40;;;;;;4930284;29;20055;-76
2022/05/05 13:18:38;;;;;;;7.25;5.03;;;31.30;45.30;;;;;;4925292;29;20040;-75
2022/05/05 13:21:04;;;;;;;4.43;3.63;;;31.40;45.20;;;;;;4928506;29;20031;-77
2022/05/05 13:23:30;;;;;;;6.82;4.45;;;31.40;45.10;;;;;;4939898;29;20055;-75
2022/05/05 13:25:56;;;;;;;6.10;3.97;;;31.50;45.00;;;;;;4936710;29;20063;-75
2022/05/05 13:28:23;;;;;;;6.00;4.30;;;31.60;44.90;;;;;;4937263;29;20032;-75
2022/05/05 13:30:49;;;;;;;5.90;3.72;;;31.60;44.90;;;;;;4940554;29;20046;-76
2022/05/05 13:33:15;;;;;;;4.13;3.72;;;31.60;44.90;;;;;;4934070;29;20043;-76
2022/05/05 13:35:40;;;;;;;5.57;4.25;;;31.60;44.80;;;;;;4934402;29;20134;-76
2022/05/05 13:38:06;;;;;;;6.38;4.95;;;31.50;44.80;;;;;;4932673;29;20028;-81